Time;durP1;ratioP1;P1;durP2;ratioP2;P2;SDS_P1;SDS_P2;PMS_P1;PMS_P2;Temp;Humidity;BMP_temperature;BMP_pressure;BME280_temperature;BME280_humidity;BME280_pressure;Samples;Min_cycle;Max_cycle;Signal;HPM_P1;HPM_P2
2021/08/25 00:02:05;;;;;;;9.00;5.50;;;18.70;68.10;;;;;;4916552;29;20028;-82
2021/08/25 00:04:31;;;;;;;9.55;5.90;;;18.70;67.90;;;;;;4916422;29;20099;-81
2021/08/25 00:06:57;;;;;;;9.93;5.85;;;18.60;68.10;;;;;;4915350;29;20040;-81
2021/08/25 00:09:22;;;;;;;9.30;5.18;;;18.60;68.00;;;;;;4899608;29;20063;-81
2021/08/25 00:11:48;;;;;;;11.10;5.47;;;18.60;67.90;;;;;;4916426;29;20062;-81
2021/08/25 00:14:14;;;;;;;6.47;5.07;;;18.60;67.60;;;;;;4916417;29;20067;-82
2021/08/25 00:16:41;;;;;;;9.27;5.28;;;18.50;67.80;;;;;;4915431;29;20130;-83
2021/08/25 00:19:06;;;;;;;8.05;4.97;;;18.50;67.50;;;;;;4916324;29;20083;-82
2021/08/25 00:21:32;;;;;;;9.82;5.57;;;18.50;67.90;;;;;;4914917;29;20056;-82
2021/08/25 00:23:58;;;;;;;9.38;5.15;;;18.50;68.20;;;;;;4916326;29;20044;-82
2021/08/25 00:26:24;;;;;;;7.80;4.78;;;18.50;68.50;;;;;;4916350;29;20032;-82
2021/08/25 00:28:50;;;;;;;8.00;4.75;;;18.50;68.30;;;;;;4915048;29;20128;-82
2021/08/25 00:31:16;;;;;;;8.20;4.53;;;18.40;68.10;;;;;;4916120;29;20032;-82
2021/08/25 00:33:42;;;;;;;7.82;4.72;;;18.40;67.40;;;;;;4916335;29;20039;-83
2021/08/25 00:36:08;;;;;;;11.25;6.03;;;18.40;67.20;;;;;;4916188;29;20036;-83
2021/08/25 00:38:34;;;;;;;8.95;4.65;;;18.40;66.80;;;;;;4914647;29;20071;-83
2021/08/25 00:41:00;;;;;;;7.28;5.15;;;18.40;66.10;;;;;;4915821;29;20138;-82
2021/08/25 00:43:26;;;;;;;8.75;5.07;;;18.40;65.60;;;;;;4914705;29;20036;-82
2021/08/25 00:45:51;;;;;;;8.25;5.20;;;18.30;65.40;;;;;;4914422;29;20067;-83
2021/08/25 00:48:18;;;;;;;12.38;5.60;;;18.30;65.20;;;;;;4914880;29;20032;-82
2021/08/25 00:50:50;;;;;;;9.70;5.60;;;18.20;65.50;;;;;;4914888;29;20096;-83
2021/08/25 00:53:18;;;;;;;8.88;5.20;;;18.20;66.10;;;;;;4916465;29;20043;-81
2021/08/25 00:55:44;;;;;;;8.45;4.65;;;18.20;66.70;;;;;;4916006;29;20135;-82
2021/08/25 00:58:10;;;;;;;7.82;4.70;;;18.20;67.10;;;;;;4915892;29;20396;-82
2021/08/25 01:00:51;;;;;;;8.57;4.78;;;18.20;67.30;;;;;;4914602;29;20047;-82
2021/08/25 01:03:26;;;;;;;6.30;4.70;;;18.20;67.40;;;;;;4914901;29;20040;-82
2021/08/25 01:05:54;;;;;;;6.30;4.65;;;18.10;67.00;;;;;;4915931;29;20051;-81
2021/08/25 01:08:20;;;;;;;8.02;4.50;;;18.10;66.70;;;;;;4916081;29;20032;-82
2021/08/25 01:10:46;;;;;;;7.68;4.53;;;18.10;66.00;;;;;;4916025;29;20043;-81
2021/08/25 01:13:13;;;;;;;7.85;4.38;;;18.10;66.20;;;;;;4916004;29;20044;-82
2021/08/25 01:15:42;;;;;;;8.05;5.20;;;18.10;66.10;;;;;;4915908;29;20044;-83
2021/08/25 01:18:16;;;;;;;7.70;5.00;;;18.10;65.70;;;;;;4915811;29;20040;-82
2021/08/25 01:20:45;;;;;;;9.02;4.95;;;18.10;66.30;;;;;;4898835;29;20036;-83
2021/08/25 01:23:22;;;;;;;7.40;4.53;;;18.10;67.10;;;;;;4890159;29;20460;-81
2021/08/25 01:25:53;;;;;;;8.38;4.90;;;18.10;67.50;;;;;;4915687;29;20410;-82
2021/08/25 01:28:22;;;;;;;6.88;4.55;;;18.00;68.10;;;;;;4913880;29;20036;-83
2021/08/25 01:30:49;;;;;;;6.20;4.60;;;18.10;68.30;;;;;;4915452;29;20048;-84
2021/08/25 01:33:22;;;;;;;8.57;4.50;;;18.00;68.60;;;;;;4915524;29;20519;-84
2021/08/25 01:35:49;;;;;;;7.28;4.38;;;18.00;68.80;;;;;;4914335;29;20048;-84
2021/08/25 01:38:36;;;;;;;7.80;4.78;;;18.00;68.90;;;;;;4913826;29;20035;-88
2021/08/25 01:41:02;;;;;;;8.07;4.80;;;18.00;69.10;;;;;;4880558;29;20037;-84
2021/08/25 01:43:28;;;;;;;7.60;4.80;;;18.00;69.30;;;;;;4896724;29;20040;-84
2021/08/25 01:45:54;;;;;;;8.48;4.95;;;18.00;69.30;;;;;;4895476;29;20041;-84
2021/08/25 01:48:21;;;;;;;8.18;4.82;;;18.00;69.40;;;;;;4895423;29;20040;-85
2021/08/25 01:50:47;;;;;;;8.45;4.80;;;18.00;69.50;;;;;;4896722;29;20164;-84
2021/08/25 01:53:15;;;;;;;7.45;4.65;;;18.00;69.50;;;;;;4895562;29;20044;-84
2021/08/25 01:55:41;;;;;;;12.00;5.15;;;18.00;69.50;;;;;;4900121;29;20429;-84
2021/08/25 01:58:07;;;;;;;8.75;5.15;;;17.90;69.50;;;;;;4898720;29;20040;-84
2021/08/25 02:00:33;;;;;;;9.18;4.72;;;18.00;69.60;;;;;;4898820;29;20091;-84
2021/08/25 02:02:59;;;;;;;6.30;4.60;;;18.00;69.60;;;;;;4900251;29;20449;-85
2021/08/25 02:05:24;;;;;;;8.98;5.28;;;17.90;69.60;;;;;;4899110;29;20115;-85
2021/08/25 02:07:50;;;;;;;7.57;5.00;;;17.90;69.30;;;;;;4900792;29;20110;-85
2021/08/25 02:10:16;;;;;;;11.18;5.18;;;17.90;69.10;;;;;;4898640;29;20040;-85
2021/08/25 02:12:42;;;;;;;11.30;5.50;;;17.90;69.10;;;;;;4899857;29;20123;-85
2021/08/25 02:15:09;;;;;;;10.00;5.05;;;17.90;68.90;;;;;;4898509;29;20139;-85
2021/08/25 02:17:35;;;;;;;7.38;4.97;;;17.90;68.70;;;;;;4898515;29;20507;-85
2021/08/25 02:20:02;;;;;;;11.20;6.10;;;17.80;68.70;;;;;;4898417;29;20044;-85
2021/08/25 02:22:28;;;;;;;8.77;4.95;;;17.80;68.50;;;;;;4900055;29;20036;-83
2021/08/25 02:24:54;;;;;;;10.35;5.55;;;17.80;68.80;;;;;;4898372;29;20068;-85
2021/08/25 02:27:20;;;;;;;8.77;5.10;;;17.80;68.80;;;;;;4899517;29;20228;-85
2021/08/25 02:29:55;;;;;;;9.90;5.35;;;17.80;68.90;;;;;;4899755;29;20068;-85
2021/08/25 02:32:22;;;;;;;9.30;5.70;;;17.80;69.00;;;;;;4898278;29;20048;-85
2021/08/25 02:34:49;;;;;;;10.32;5.28;;;17.80;68.80;;;;;;4899311;29;20060;-85
2021/08/25 02:37:15;;;;;;;9.20;5.43;;;17.80;68.50;;;;;;4899429;29;20065;-84
2021/08/25 02:39:40;;;;;;;12.40;5.70;;;17.80;68.60;;;;;;4898074;29;20048;-84
2021/08/25 02:42:06;;;;;;;11.88;5.43;;;17.70;68.30;;;;;;4899137;29;20542;-86
2021/08/25 02:44:32;;;;;;;9.38;5.38;;;17.70;68.30;;;;;;4897946;29;20111;-85
2021/08/25 02:46:58;;;;;;;10.38;5.65;;;17.70;68.60;;;;;;4913032;29;20036;-84
2021/08/25 02:49:24;;;;;;;11.10;6.28;;;17.70;68.60;;;;;;4918150;29;20411;-84
2021/08/25 02:51:50;;;;;;;13.13;5.40;;;17.70;68.70;;;;;;4918939;29;20136;-85
2021/08/25 02:54:16;;;;;;;10.50;5.90;;;17.70;68.70;;;;;;4918281;29;20079;-85
2021/08/25 02:56:42;;;;;;;8.65;5.15;;;17.70;68.70;;;;;;4916819;29;20043;-84
2021/08/25 02:59:08;;;;;;;10.07;5.70;;;17.70;68.70;;;;;;4916618;29;20040;-84
2021/08/25 03:01:34;;;;;;;9.35;5.80;;;17.60;68.70;;;;;;4918019;29;20040;-83
2021/08/25 03:04:00;;;;;;;8.50;5.28;;;17.60;68.60;;;;;;4917952;29;20549;-83
2021/08/25 03:06:26;;;;;;;9.90;5.35;;;17.60;68.80;;;;;;4915511;29;20467;-83
2021/08/25 03:08:52;;;;;;;12.20;6.00;;;17.60;68.80;;;;;;4917958;29;20036;-83
2021/08/25 03:11:18;;;;;;;8.80;5.70;;;17.60;68.90;;;;;;4932229;29;20115;-82
2021/08/25 03:13:43;;;;;;;13.35;5.60;;;17.60;69.10;;;;;;4917508;29;20468;-83
2021/08/25 03:16:09;;;;;;;10.13;5.25;;;17.60;69.30;;;;;;4916782;29;20090;-84
2021/08/25 03:18:35;;;;;;;8.80;5.65;;;17.60;69.40;;;;;;4915517;29;20047;-82
2021/08/25 03:21:01;;;;;;;10.27;6.00;;;17.50;69.50;;;;;;4917457;29;20036;-82
2021/08/25 03:23:27;;;;;;;8.57;5.70;;;17.60;69.60;;;;;;4916209;29;20032;-82
2021/08/25 03:25:54;;;;;;;11.10;6.03;;;17.60;69.60;;;;;;4917474;29;20570;-83
2021/08/25 03:28:20;;;;;;;8.23;5.15;;;17.60;69.60;;;;;;4916975;29;20040;-83
2021/08/25 03:30:45;;;;;;;10.45;5.68;;;17.60;69.70;;;;;;4915990;29;20040;-88
2021/08/25 03:33:12;;;;;;;10.48;6.00;;;17.60;69.70;;;;;;4900368;29;20036;-88
2021/08/25 03:35:37;;;;;;;7.97;5.68;;;17.60;69.60;;;;;;4895061;29;20041;-87
2021/08/25 03:38:03;;;;;;;10.70;5.97;;;17.60;69.80;;;;;;4916466;29;20051;-86
2021/08/25 03:40:29;;;;;;;10.73;5.53;;;17.60;69.80;;;;;;4916720;29;20047;-84
2021/08/25 03:42:55;;;;;;;10.10;5.97;;;17.60;69.90;;;;;;4916581;29;20575;-85
2021/08/25 03:45:21;;;;;;;8.07;5.78;;;17.70;70.00;;;;;;4915638;29;20032;-84
2021/08/25 03:47:47;;;;;;;10.98;5.70;;;17.70;70.00;;;;;;4916554;29;20036;-84
2021/08/25 03:50:13;;;;;;;11.10;5.97;;;17.70;69.90;;;;;;4915518;29;20107;-85
2021/08/25 03:52:39;;;;;;;11.20;5.80;;;17.70;69.60;;;;;;4916634;29;20397;-84
2021/08/25 03:55:05;;;;;;;11.30;5.97;;;17.70;69.40;;;;;;4916496;29;20040;-83
2021/08/25 03:57:31;;;;;;;11.15;5.57;;;17.80;69.50;;;;;;4915550;29;20515;-85
2021/08/25 03:59:57;;;;;;;11.82;5.63;;;17.80;69.40;;;;;;4915864;29;20055;-92
2021/08/25 04:02:23;;;;;;;8.85;5.97;;;17.80;69.30;;;;;;4918382;29;20171;-91
2021/08/25 04:04:49;;;;;;;12.52;6.18;;;17.80;69.40;;;;;;4913891;29;20039;-91
2021/08/25 04:07:15;;;;;;;10.23;5.20;;;17.80;69.30;;;;;;4918234;29;20039;-90
2021/08/25 04:09:41;;;;;;;9.52;5.60;;;17.80;68.70;;;;;;4911638;29;20084;-85
2021/08/25 04:12:07;;;;;;;9.60;6.13;;;17.80;68.50;;;;;;4904557;29;20032;-85
2021/08/25 04:14:33;;;;;;;14.65;6.10;;;17.90;68.20;;;;;;4896376;29;20032;-83
2021/08/25 04:16:59;;;;;;;12.05;5.70;;;17.90;67.80;;;;;;4909261;29;20055;-86
2021/08/25 04:19:25;;;;;;;11.32;5.97;;;17.90;67.70;;;;;;4910886;29;20039;-93
2021/08/25 04:21:51;;;;;;;13.50;6.05;;;17.90;67.50;;;;;;4916702;29;20040;-94
2021/08/25 04:24:17;;;;;;;9.60;5.38;;;18.00;67.50;;;;;;4918692;29;20036;-90
2021/08/25 04:26:43;;;;;;;12.98;6.35;;;18.00;67.30;;;;;;4918875;29;20439;-93
2021/08/25 04:29:09;;;;;;;10.85;5.53;;;18.00;67.20;;;;;;4917067;29;20040;-93
2021/08/25 04:31:35;;;;;;;13.57;5.80;;;18.00;66.80;;;;;;4900439;29;20079;-90
2021/08/25 04:34:00;;;;;;;12.30;6.13;;;18.10;67.20;;;;;;4916446;29;20044;-90
2021/08/25 04:36:26;;;;;;;12.05;6.47;;;18.10;66.30;;;;;;4916640;29;20036;-89
2021/08/25 04:38:52;;;;;;;13.13;6.35;;;18.20;65.80;;;;;;4916153;29;20495;-90
2021/08/25 04:41:18;;;;;;;11.88;6.60;;;18.40;65.90;;;;;;4898546;29;20065;-90
2021/08/25 04:43:44;;;;;;;11.70;5.40;;;18.60;65.60;;;;;;4909031;29;20040;-92
2021/08/25 04:46:17;;;;;;;11.43;5.60;;;18.90;65.40;;;;;;4900850;29;20067;-95
2021/08/25 04:48:44;;;;;;;9.57;5.55;;;19.10;65.40;;;;;;4916456;29;20184;-94
2021/08/25 04:51:13;;;;;;;10.30;5.32;;;19.40;64.70;;;;;;4927898;28;20032;-93
2021/08/25 05:20:42;;;;;;;7.43;4.68;;;21.80;60.80;;;;;;5937494;23;20026;-95
2021/08/25 05:23:10;;;;;;;8.30;4.63;;;21.90;60.90;;;;;;5362942;23;20051;-94
2021/08/25 05:25:36;;;;;;;6.20;4.00;;;22.10;60.30;;;;;;4940867;29;20529;-95
2021/08/25 05:35:54;;;;;;;5.77;4.30;;;22.80;59.60;;;;;;4964471;28;20102;-94
2021/08/25 05:40:55;;;;;;;;;;;23.10;58.70;;;;;;5943486;23;20018;-93
2021/08/25 05:43:21;;;;;;;8.88;4.50;;;23.20;58.60;;;;;;4924382;29;19918;-96
2021/08/25 05:45:47;;;;;;;7.13;4.72;;;23.40;58.40;;;;;;4939950;29;20415;-94
2021/08/25 05:48:13;;;;;;;6.65;4.18;;;23.50;58.00;;;;;;4940576;29;20039;-94
2021/08/25 05:50:39;;;;;;;8.82;4.60;;;23.70;57.60;;;;;;4940948;29;20314;-94
2021/08/25 05:53:05;;;;;;;8.32;4.40;;;23.80;56.80;;;;;;4939996;29;20032;-96
2021/08/25 05:55:31;;;;;;;7.65;4.70;;;23.90;56.30;;;;;;4947244;29;20043;-94
2021/08/25 05:57:57;;;;;;;6.13;4.03;;;24.10;56.70;;;;;;4952945;29;20074;-83
2021/08/25 06:00:23;;;;;;;6.60;3.95;;;24.20;55.80;;;;;;4937529;29;20064;-88
2021/08/25 06:02:49;;;;;;;7.75;4.32;;;24.40;55.60;;;;;;4936537;29;20122;-82
2021/08/25 06:05:15;;;;;;;6.45;4.22;;;24.60;55.20;;;;;;4937454;29;20142;-80
2021/08/25 06:07:41;;;;;;;7.15;4.57;;;24.70;54.70;;;;;;4937511;29;20090;-80
2021/08/25 06:10:07;;;;;;;7.95;4.15;;;24.80;54.00;;;;;;4937357;29;20430;-78
2021/08/25 06:12:34;;;;;;;7.72;4.65;;;24.90;54.90;;;;;;4937333;29;20463;-79
2021/08/25 06:15:00;;;;;;;7.43;4.10;;;25.00;54.60;;;;;;4931722;29;20118;-79
2021/08/25 06:17:26;;;;;;;8.48;4.70;;;25.00;53.10;;;;;;4909342;29;20120;-80
2021/08/25 06:19:52;;;;;;;10.10;4.90;;;25.10;51.60;;;;;;4930059;29;20510;-79
2021/08/25 06:22:18;;;;;;;7.00;4.15;;;25.20;51.70;;;;;;4926924;29;20039;-80
2021/08/25 06:24:44;;;;;;;7.15;4.22;;;25.20;51.70;;;;;;4928203;29;20086;-79
2021/08/25 06:27:10;;;;;;;10.20;4.80;;;25.20;51.50;;;;;;4913602;29;20110;-77
2021/08/25 06:29:37;;;;;;;9.90;4.03;;;25.30;51.10;;;;;;4929109;29;20076;-78
2021/08/25 06:32:04;;;;;;;7.53;4.00;;;25.40;50.70;;;;;;4906440;29;20119;-76
2021/08/25 06:34:30;;;;;;;5.97;4.05;;;25.40;49.80;;;;;;4923834;29;20507;-78
2021/08/25 06:36:56;;;;;;;7.78;4.43;;;25.50;49.50;;;;;;4908484;29;20039;-78
2021/08/25 06:39:22;;;;;;;8.07;4.60;;;25.60;48.80;;;;;;4913316;29;20044;-78
2021/08/25 06:41:48;;;;;;;7.13;5.00;;;25.60;48.50;;;;;;4927137;29;20059;-78
2021/08/25 06:44:14;;;;;;;6.15;4.20;;;25.70;49.10;;;;;;4928255;29;20418;-78
2021/08/25 06:46:40;;;;;;;9.52;4.05;;;25.70;49.60;;;;;;4913732;29;20040;-77
2021/08/25 06:49:05;;;;;;;9.18;4.47;;;25.80;49.70;;;;;;4910979;29;20106;-77
2021/08/25 06:51:32;;;;;;;7.22;4.00;;;25.90;49.30;;;;;;4909752;29;20048;-78
2021/08/25 06:54:00;;;;;;;8.55;4.65;;;25.90;49.40;;;;;;4926511;29;20039;-78
2021/08/25 06:56:26;;;;;;;7.07;4.03;;;26.00;48.70;;;;;;4925985;29;20123;-80
2021/08/25 06:58:52;;;;;;;8.45;5.40;;;26.00;49.00;;;;;;4907425;29;20059;-77
2021/08/25 07:01:18;;;;;;;5.13;3.92;;;26.00;48.70;;;;;;4928640;29;20040;-77
2021/08/25 07:03:44;;;;;;;9.07;4.68;;;26.10;49.00;;;;;;4911462;29;20024;-80
2021/08/25 07:06:10;;;;;;;7.25;4.55;;;26.20;48.90;;;;;;4925687;29;20031;-79
2021/08/25 07:08:36;;;;;;;7.57;4.38;;;26.20;48.60;;;;;;4911795;29;20032;-80
2021/08/25 07:11:02;;;;;;;5.55;4.50;;;26.20;49.30;;;;;;4924196;29;20080;-80
2021/08/25 07:13:28;;;;;;;7.63;4.18;;;26.30;49.90;;;;;;4911758;29;20507;-79
2021/08/25 07:15:54;;;;;;;10.43;4.07;;;26.30;49.90;;;;;;4909023;29;20060;-79
2021/08/25 07:18:20;;;;;;;9.38;4.50;;;26.30;50.00;;;;;;4909073;29;20375;-79
2021/08/25 07:20:46;;;;;;;8.88;4.45;;;26.30;49.70;;;;;;4926085;29;20504;-79
2021/08/25 07:23:13;;;;;;;7.65;4.25;;;26.40;49.20;;;;;;4909271;29;20032;-80
2021/08/25 07:25:39;;;;;;;9.63;4.70;;;26.40;48.30;;;;;;4921445;29;20047;-80
2021/08/25 07:28:05;;;;;;;8.40;4.65;;;26.40;47.50;;;;;;4919730;29;20043;-80
2021/08/25 07:30:30;;;;;;;7.53;4.65;;;26.40;47.30;;;;;;4919298;29;20032;-80
2021/08/25 07:32:56;;;;;;;7.20;4.57;;;26.40;47.80;;;;;;4916707;29;20550;-80
2021/08/25 07:35:24;;;;;;;7.35;4.25;;;26.40;47.10;;;;;;4917207;29;20043;-79
2021/08/25 07:37:50;;;;;;;6.40;4.60;;;26.30;47.20;;;;;;4916705;29;20036;-79
2021/08/25 07:40:16;;;;;;;6.78;4.88;;;26.30;47.40;;;;;;4916687;29;20522;-80
2021/08/25 07:42:44;;;;;;;5.72;4.22;;;26.30;47.90;;;;;;4902030;29;20115;-80
2021/08/25 07:45:10;;;;;;;6.55;4.45;;;26.30;47.50;;;;;;4917337;29;20076;-80
2021/08/25 07:47:38;;;;;;;7.03;4.43;;;26.20;48.00;;;;;;4919092;29;20111;-79
2021/08/25 07:50:05;;;;;;;6.78;4.50;;;26.20;48.30;;;;;;4916643;29;20038;-79
2021/08/25 07:52:31;;;;;;;6.10;4.60;;;26.20;48.40;;;;;;4915926;29;20073;-80
2021/08/25 07:54:57;;;;;;;6.32;4.03;;;26.20;48.80;;;;;;4918101;29;20044;-79
2021/08/25 07:57:23;;;;;;;9.57;4.50;;;26.20;48.00;;;;;;4900922;29;20520;-79
2021/08/25 07:59:49;;;;;;;7.80;4.68;;;26.20;48.50;;;;;;4899679;29;20047;-80
2021/08/25 08:02:15;;;;;;;5.28;4.03;;;26.20;48.30;;;;;;4915763;29;20028;-80
2021/08/25 08:04:41;;;;;;;9.27;4.28;;;26.10;48.10;;;;;;4915471;29;20040;-79
2021/08/25 08:07:06;;;;;;;7.07;4.78;;;26.10;47.80;;;;;;4916501;29;20087;-80
2021/08/25 08:09:32;;;;;;;9.18;4.22;;;26.10;48.10;;;;;;4917225;29;20036;-80
2021/08/25 08:11:58;;;;;;;9.43;5.05;;;26.10;48.20;;;;;;4916885;29;20129;-78
2021/08/25 08:14:25;;;;;;;9.23;4.25;;;26.00;48.60;;;;;;4916441;29;20043;-83
2021/08/25 08:16:55;;;;;;;7.38;4.57;;;26.00;49.00;;;;;;4916623;29;20519;-80
2021/08/25 08:19:29;;;;;;;11.05;4.47;;;26.00;48.00;;;;;;4917399;29;20054;-81
2021/08/25 08:21:55;;;;;;;9.18;4.53;;;25.90;48.20;;;;;;4916171;29;20045;-80
2021/08/25 08:24:21;;;;;;;8.55;5.10;;;25.90;48.30;;;;;;4915779;29;20024;-80
2021/08/25 08:26:47;;;;;;;7.63;4.80;;;25.90;48.40;;;;;;4918138;29;20059;-83
2021/08/25 08:29:14;;;;;;;7.00;4.50;;;25.80;48.20;;;;;;4917171;29;20055;-82
2021/08/25 08:31:40;;;;;;;7.53;4.13;;;25.70;48.30;;;;;;4917687;29;20094;-81
2021/08/25 08:34:06;;;;;;;7.10;4.72;;;25.70;48.10;;;;;;4918773;29;20044;-81
2021/08/25 08:36:32;;;;;;;9.18;4.82;;;25.60;47.80;;;;;;4918212;29;20561;-81
2021/08/25 08:38:58;;;;;;;8.13;4.38;;;25.60;48.50;;;;;;4918914;29;20044;-81
2021/08/25 08:41:24;;;;;;;7.85;4.35;;;25.50;49.30;;;;;;4918524;29;20511;-80
2021/08/25 08:43:52;;;;;;;8.95;4.53;;;25.50;49.10;;;;;;4918944;29;20042;-80
2021/08/25 08:46:22;;;;;;;10.77;4.63;;;25.50;49.00;;;;;;4915926;29;20087;-81
2021/08/25 08:48:49;;;;;;;8.90;4.47;;;25.40;48.80;;;;;;4915935;29;20043;-82
2021/08/25 08:51:20;;;;;;;8.27;4.97;;;25.40;50.00;;;;;;4915730;29;20042;-81
2021/08/25 08:53:48;;;;;;;7.25;4.15;;;25.40;50.10;;;;;;4914541;29;20507;-82
2021/08/25 08:56:14;;;;;;;8.65;4.82;;;25.40;50.70;;;;;;4915689;29;20112;-77
2021/08/25 08:58:41;;;;;;;10.73;4.85;;;25.40;51.00;;;;;;4915765;29;20036;-82
2021/08/25 09:01:08;;;;;;;11.02;5.00;;;25.30;48.40;;;;;;4914691;29;20040;-81
2021/08/25 09:03:36;;;;;;;10.45;5.57;;;25.20;46.80;;;;;;4918086;29;20040;-86
2021/08/25 09:06:03;;;;;;;10.13;4.65;;;25.10;46.50;;;;;;4920409;29;20036;-80
2021/08/25 09:08:31;;;;;;;8.90;4.80;;;25.10;47.60;;;;;;4920309;29;20040;-84
2021/08/25 09:11:12;;;;;;;11.20;4.55;;;25.00;48.90;;;;;;4903109;29;20123;-85
2021/08/25 09:13:42;;;;;;;9.98;5.00;;;25.00;48.60;;;;;;4919700;29;20091;-81
2021/08/25 09:16:08;;;;;;;7.93;4.10;;;25.00;48.50;;;;;;4919736;29;20174;-84
2021/08/25 09:18:34;;;;;;;11.00;5.00;;;25.00;48.80;;;;;;4919780;29;20164;-84
2021/08/25 09:21:00;;;;;;;14.25;4.68;;;25.00;48.90;;;;;;4920022;29;20036;-81
2021/08/25 09:23:28;;;;;;;8.63;5.07;;;24.90;49.40;;;;;;4919683;29;20032;-81
2021/08/25 09:26:00;;;;;;;9.90;4.93;;;25.00;49.60;;;;;;4919838;29;20530;-91
2021/08/25 09:28:31;;;;;;;12.38;4.88;;;24.90;49.00;;;;;;4918684;29;20032;-85
2021/08/25 09:31:06;;;;;;;8.70;5.30;;;24.90;49.70;;;;;;4918521;29;20474;-83
2021/08/25 09:33:38;;;;;;;13.63;4.90;;;24.90;50.40;;;;;;4919687;29;20047;-84
2021/08/25 09:36:10;;;;;;;15.68;4.70;;;24.90;50.10;;;;;;4919200;29;20056;-80
2021/08/25 09:38:38;;;;;;;10.63;5.70;;;24.90;50.70;;;;;;4919306;29;20063;-81
2021/08/25 09:41:07;;;;;;;13.25;5.82;;;24.90;49.90;;;;;;4919040;29;20143;-80
2021/08/25 09:43:43;;;;;;;11.52;5.38;;;24.80;50.00;;;;;;4918961;29;20040;-80
2021/08/25 09:46:17;;;;;;;10.15;4.90;;;24.80;49.10;;;;;;4919010;29;20051;-80
2021/08/25 09:48:48;;;;;;;12.35;5.18;;;24.70;49.00;;;;;;4918975;29;20040;-80
2021/08/25 09:51:17;;;;;;;9.18;4.57;;;24.70;49.10;;;;;;4918915;29;20047;-80
2021/08/25 09:53:48;;;;;;;9.32;4.65;;;24.60;48.90;;;;;;4918822;29;20040;-80
2021/08/25 09:56:25;;;;;;;8.57;4.55;;;24.60;49.40;;;;;;4918682;29;20047;-80
2021/08/25 09:58:52;;;;;;;9.35;5.18;;;24.60;49.40;;;;;;4918556;29;20039;-81
2021/08/25 10:01:19;;;;;;;8.77;5.18;;;24.50;49.00;;;;;;4918758;29;20048;-80
2021/08/25 10:03:46;;;;;;;9.38;4.93;;;24.50;48.70;;;;;;4918726;29;20522;-80
2021/08/25 10:06:18;;;;;;;7.47;4.88;;;24.50;49.30;;;;;;4918650;29;20040;-80
2021/08/25 10:08:47;;;;;;;12.80;5.07;;;24.40;49.50;;;;;;4901946;29;20043;-80
2021/08/25 10:11:14;;;;;;;8.25;4.88;;;24.40;49.30;;;;;;4918586;29;20095;-80
2021/08/25 10:13:41;;;;;;;7.72;5.30;;;24.40;49.60;;;;;;4918547;29;20039;-80
2021/08/25 10:16:31;;;;;;;9.82;4.70;;;24.40;49.40;;;;;;4917910;29;20036;-80
2021/08/25 10:19:25;;;;;;;9.00;4.90;;;24.40;48.90;;;;;;4918369;29;20043;-80
2021/08/25 10:21:53;;;;;;;8.20;5.15;;;24.40;49.70;;;;;;4918049;29;20130;-80
2021/08/25 10:24:19;;;;;;;7.15;4.88;;;24.40;48.60;;;;;;4918260;29;20091;-80
2021/08/25 10:26:57;;;;;;;7.35;4.65;;;24.30;48.80;;;;;;4918238;29;20104;-81
2021/08/25 10:29:24;;;;;;;9.60;4.63;;;24.30;49.40;;;;;;4918101;29;20123;-80
2021/08/25 10:31:50;;;;;;;8.40;4.78;;;24.30;49.70;;;;;;4918232;29;20036;-81
2021/08/25 10:34:30;;;;;;;8.93;5.25;;;24.40;49.50;;;;;;4917889;29;20095;-80
2021/08/25 10:37:11;;;;;;;8.35;4.60;;;24.30;49.30;;;;;;4917929;29;20046;-80
2021/08/25 10:39:39;;;;;;;10.00;5.22;;;24.30;49.70;;;;;;4916530;29;20099;-81
2021/08/25 10:42:06;;;;;;;8.73;5.43;;;24.30;50.00;;;;;;4917912;29;20124;-82
2021/08/25 10:44:41;;;;;;;10.63;5.35;;;24.30;50.00;;;;;;4900941;29;20397;-81
2021/08/25 10:47:15;;;;;;;7.45;4.97;;;24.30;49.50;;;;;;4916784;29;20096;-81
2021/08/25 10:49:47;;;;;;;9.88;5.30;;;24.30;49.30;;;;;;4918005;29;20058;-81
2021/08/25 10:52:15;;;;;;;9.10;5.93;;;24.30;49.10;;;;;;4917944;29;20051;-81
2021/08/25 10:54:42;;;;;;;8.93;5.53;;;24.30;49.10;;;;;;4916319;29;20480;-81
2021/08/25 10:57:10;;;;;;;11.10;5.53;;;24.30;49.00;;;;;;4917752;29;20036;-81
2021/08/25 10:59:37;;;;;;;8.40;5.15;;;24.20;49.50;;;;;;4900706;29;20476;-79
2021/08/25 11:02:03;;;;;;;8.80;5.22;;;24.30;49.90;;;;;;4917517;29;20036;-80
2021/08/25 11:04:29;;;;;;;9.18;5.20;;;24.30;49.10;;;;;;4917352;29;20087;-81
2021/08/25 11:07:13;;;;;;;9.77;5.03;;;24.30;49.20;;;;;;4917239;29;20048;-81
2021/08/25 11:09:42;;;;;;;9.63;5.28;;;24.30;49.70;;;;;;4917289;29;20095;-81
2021/08/25 11:12:10;;;;;;;6.82;4.68;;;24.30;49.80;;;;;;4900296;29;20028;-80
2021/08/25 11:14:50;;;;;;;9.90;5.68;;;24.30;50.60;;;;;;4916255;29;20055;-80
2021/08/25 11:17:30;;;;;;;8.68;4.93;;;24.30;49.90;;;;;;4916220;29;20040;-81
2021/08/25 11:19:58;;;;;;;9.10;5.35;;;24.30;49.60;;;;;;4915766;29;20036;-81
2021/08/25 11:22:32;;;;;;;13.88;5.72;;;24.30;49.00;;;;;;4917295;29;20411;-81
2021/08/25 11:25:06;;;;;;;10.65;5.60;;;24.20;49.00;;;;;;4917153;29;20028;-88
2021/08/25 11:27:35;;;;;;;11.85;5.35;;;24.20;48.50;;;;;;4916719;29;20040;-85
2021/08/25 11:30:24;;;;;;;9.82;5.35;;;24.20;49.00;;;;;;4916904;29;20040;-85
2021/08/25 11:33:00;;;;;;;8.95;5.45;;;24.10;49.30;;;;;;4917141;29;20032;-83
2021/08/25 11:35:26;;;;;;;8.98;5.20;;;24.10;49.50;;;;;;4915705;29;20570;-83
2021/08/25 11:37:57;;;;;;;9.98;5.63;;;24.10;49.60;;;;;;4915737;29;20043;-84
2021/08/25 11:40:25;;;;;;;11.00;4.88;;;24.10;49.60;;;;;;4917176;29;20051;-83
2021/08/25 11:42:52;;;;;;;12.80;5.45;;;24.10;49.90;;;;;;4916907;29;20541;-81
2021/08/25 11:45:21;;;;;;;12.95;5.10;;;24.10;50.10;;;;;;4917082;29;20043;-82
2021/08/25 11:47:51;;;;;;;10.50;5.13;;;24.10;50.10;;;;;;4916795;29;20447;-83
2021/08/25 11:50:25;;;;;;;10.23;5.45;;;24.10;50.50;;;;;;4916987;29;20048;-84
2021/08/25 11:52:52;;;;;;;8.18;4.80;;;24.10;50.50;;;;;;4900091;29;20040;-83
2021/08/25 11:55:18;;;;;;;8.98;4.95;;;24.10;50.30;;;;;;4900183;29;20047;-83
2021/08/25 11:57:46;;;;;;;8.10;4.90;;;24.10;50.30;;;;;;4915476;29;20043;-83
2021/08/25 12:00:17;;;;;;;8.10;4.80;;;24.10;50.40;;;;;;4916805;29;20071;-82
2021/08/25 12:03:00;;;;;;;12.23;5.60;;;24.00;50.40;;;;;;4915268;29;20131;-83
2021/08/25 12:05:31;;;;;;;11.05;5.15;;;24.00;50.30;;;;;;4915333;29;20067;-83
2021/08/25 12:07:57;;;;;;;13.30;5.10;;;24.00;50.30;;;;;;4899647;29;20035;-82
2021/08/25 12:10:24;;;;;;;10.88;5.45;;;24.00;50.50;;;;;;4899786;29;20511;-82
2021/08/25 12:12:50;;;;;;;8.32;4.95;;;23.90;50.30;;;;;;4915341;29;20043;-83
2021/08/25 12:15:16;;;;;;;13.90;5.20;;;24.00;50.60;;;;;;4915215;29;20040;-82
2021/08/25 12:18:00;;;;;;;7.53;5.32;;;24.00;50.60;;;;;;4915402;29;20083;-81
2021/08/25 12:20:41;;;;;;;8.68;5.47;;;23.90;50.40;;;;;;4916846;29;20138;-83
2021/08/25 12:23:08;;;;;;;13.68;5.35;;;23.90;50.50;;;;;;4899761;29;20072;-82
2021/08/25 12:25:41;;;;;;;18.55;5.82;;;23.90;50.30;;;;;;4915346;29;20032;-81
2021/08/25 12:28:32;;;;;;;10.55;5.35;;;23.90;50.50;;;;;;4915037;29;20496;-80
2021/08/25 12:31:22;;;;;;;9.20;5.10;;;23.90;50.70;;;;;;4914518;29;20052;-81
2021/08/25 12:33:51;;;;;;;7.82;4.85;;;23.90;51.00;;;;;;4915116;29;20044;-80
2021/08/25 12:36:25;;;;;;;8.40;4.75;;;23.90;51.00;;;;;;4915326;29;20039;-80
2021/08/25 12:38:52;;;;;;;10.05;4.90;;;23.90;51.10;;;;;;4898987;29;20044;-82
2021/08/25 12:41:18;;;;;;;9.45;5.22;;;23.90;51.30;;;;;;4898972;29;20436;-80
2021/08/25 12:43:44;;;;;;;15.43;5.30;;;23.90;51.30;;;;;;4916280;29;20443;-81
2021/08/25 12:46:10;;;;;;;8.82;4.70;;;23.90;51.50;;;;;;4899243;29;20036;-83
2021/08/25 12:48:36;;;;;;;7.78;4.80;;;23.90;51.40;;;;;;4899015;29;20035;-82
2021/08/25 12:51:03;;;;;;;7.70;4.78;;;23.90;51.30;;;;;;4915094;29;20044;-82
2021/08/25 12:53:29;;;;;;;12.40;4.82;;;23.90;51.40;;;;;;4915159;29;20044;-82
2021/08/25 12:55:55;;;;;;;7.75;4.70;;;23.90;51.40;;;;;;4914765;29;20036;-84
2021/08/25 12:58:21;;;;;;;8.82;5.22;;;23.90;51.70;;;;;;4902509;29;20095;-85
2021/08/25 13:00:47;;;;;;;18.90;4.75;;;23.90;51.90;;;;;;4918885;29;20040;-81
2021/08/25 13:03:13;;;;;;;7.88;5.15;;;23.90;52.10;;;;;;4917187;29;20575;-84
2021/08/25 13:05:40;;;;;;;7.57;4.53;;;23.90;52.10;;;;;;4919778;29;20043;-82
2021/08/25 13:08:09;;;;;;;8.45;4.78;;;23.90;52.20;;;;;;4900305;29;20036;-85
2021/08/25 13:10:35;;;;;;;6.72;4.68;;;23.90;52.30;;;;;;4914647;29;20044;-85
2021/08/25 13:13:03;;;;;;;10.68;5.00;;;23.90;52.30;;;;;;4914748;29;20028;-85
2021/08/25 13:15:50;;;;;;;13.20;4.85;;;23.90;52.40;;;;;;4899374;29;20038;-86
2021/08/25 13:18:50;;;;;;;12.18;4.95;;;23.90;52.70;;;;;;4914382;29;20135;-86
2021/08/25 13:24:23;;;;;;;11.68;4.85;;;24.00;52.90;;;;;;4914714;29;20515;-85
2021/08/25 13:26:49;;;;;;;8.50;4.40;;;23.90;52.70;;;;;;4884561;29;20063;-85
2021/08/25 13:29:15;;;;;;;14.60;5.10;;;24.00;52.80;;;;;;4899612;29;20032;-83